createdAt,value
2023-04-12T00:00:52.817Z,9.90
2023-04-12T00:03:21.063Z,9.90
2023-04-12T00:05:48.695Z,9.90
2023-04-12T00:08:16.903Z,10.00
2023-04-12T00:10:43.610Z,10.10
2023-04-12T00:13:10.452Z,10.10
2023-04-12T00:15:37.257Z,10.10
2023-04-12T00:18:04.112Z,10.10
2023-04-12T00:20:30.811Z,10.20
2023-04-12T00:22:57.762Z,10.10
2023-04-12T00:25:24.707Z,10.10
2023-04-12T00:27:51.317Z,10.10
2023-04-12T00:30:18.100Z,10.10
2023-04-12T00:32:44.838Z,10.10
2023-04-12T00:35:11.719Z,10.10
2023-04-12T00:37:38.764Z,10.10
2023-04-12T00:40:08.221Z,10.10
2023-04-12T00:42:36.547Z,10.10
2023-04-12T00:45:03.783Z,10.10
2023-04-12T00:47:30.741Z,10.10
2023-04-12T00:49:58.905Z,10.10
2023-04-12T00:52:28.112Z,10.10
2023-04-12T00:54:55.006Z,10.00
2023-04-12T00:57:22.347Z,10.00
2023-04-12T00:59:49.120Z,10.00
2023-04-12T01:02:17.360Z,10.00
2023-04-12T01:04:45.038Z,10.00
2023-04-12T01:07:20.061Z,9.90
2023-04-12T01:10:27.538Z,9.90
2023-04-12T01:13:28.602Z,9.80
2023-04-12T01:16:04.308Z,9.70
2023-04-12T01:18:40.695Z,9.60
2023-04-12T01:21:13.155Z,9.60
2023-04-12T01:23:45.941Z,9.50
2023-04-12T01:26:15.745Z,9.60
2023-04-12T01:28:44.725Z,9.60
2023-04-12T01:31:13.729Z,9.60
2023-04-12T01:33:43.174Z,9.60
2023-04-12T01:36:22.589Z,9.60
2023-04-12T01:38:50.490Z,9.60
2023-04-12T01:41:17.825Z,9.60
2023-04-12T01:43:46.161Z,9.50
2023-04-12T01:46:14.979Z,9.50
2023-04-12T01:48:45.745Z,9.50
2023-04-12T01:51:19.374Z,9.60
2023-04-12T01:53:54.590Z,9.60
2023-04-12T01:56:22.749Z,9.60
2023-04-12T01:58:53.382Z,9.60
2023-04-12T02:01:21.460Z,9.70
2023-04-12T02:03:49.952Z,9.60
2023-04-12T02:06:20.755Z,9.60
2023-04-12T02:08:47.939Z,9.50
2023-04-12T02:11:14.851Z,9.60
2023-04-12T02:13:41.537Z,9.50
2023-04-12T02:16:10.559Z,9.50
2023-04-12T02:18:37.201Z,9.50
2023-04-12T02:21:03.946Z,9.40
2023-04-12T02:23:30.529Z,9.50
2023-04-12T02:25:57.141Z,9.50
2023-04-12T02:28:23.747Z,9.50
2023-04-12T02:30:53.989Z,9.40
2023-04-12T02:33:21.658Z,9.40
2023-04-12T02:35:48.329Z,9.40
2023-04-12T02:38:15.016Z,9.40
2023-04-12T02:40:42.154Z,9.30
2023-04-12T02:43:09.561Z,9.30
2023-04-12T02:45:36.589Z,9.30
2023-04-12T02:48:05.137Z,9.30
2023-04-12T02:50:31.980Z,9.30
2023-04-12T02:52:58.829Z,9.30
2023-04-12T02:55:25.846Z,9.30
2023-04-12T02:57:53.534Z,9.40
2023-04-12T03:00:21.501Z,9.30
2023-04-12T03:02:51.389Z,9.30
2023-04-12T03:05:18.812Z,9.40
2023-04-12T03:07:46.132Z,9.40
2023-04-12T03:10:13.234Z,9.40
2023-04-12T03:12:40.070Z,9.50
2023-04-12T03:15:07.359Z,9.60
2023-04-12T03:17:33.986Z,9.60
2023-04-12T03:20:07.903Z,9.60
2023-04-12T03:22:34.615Z,9.50
2023-04-12T03:25:01.474Z,9.40
2023-04-12T03:27:28.183Z,9.40
2023-04-12T03:29:54.873Z,9.40
2023-04-12T03:32:21.664Z,9.40
2023-04-12T03:34:48.270Z,9.40
2023-04-12T03:37:14.923Z,9.40
2023-04-12T03:39:41.757Z,9.50
2023-04-12T03:42:13.594Z,9.40
2023-04-12T03:44:48.612Z,9.40
2023-04-12T03:47:15.422Z,9.30
2023-04-12T03:49:42.682Z,9.30
2023-04-12T03:52:09.379Z,9.30
2023-04-12T03:54:36.168Z,9.20
2023-04-12T03:57:02.882Z,9.20
2023-04-12T03:59:29.790Z,9.20
2023-04-12T04:01:57.406Z,9.20
2023-04-12T04:04:24.556Z,9.20
2023-04-12T04:06:52.247Z,9.10
2023-04-12T04:09:19.215Z,9.20
2023-04-12T04:11:46.847Z,9.20
2023-04-12T04:14:13.679Z,9.30
2023-04-12T04:16:40.413Z,9.30
2023-04-12T04:19:07.075Z,9.30
2023-04-12T04:21:33.791Z,9.30
2023-04-12T04:24:04.100Z,9.40
2023-04-12T04:26:33.903Z,9.50
2023-04-12T04:29:01.855Z,9.50
2023-04-12T04:31:34.401Z,9.40
2023-04-12T04:34:03.390Z,9.40
2023-04-12T04:36:30.171Z,9.40
2023-04-12T04:38:59.673Z,9.40
2023-04-12T04:41:26.601Z,9.40
2023-04-12T04:43:54.271Z,9.50
2023-04-12T04:46:21.957Z,9.50
2023-04-12T04:48:50.095Z,9.60
2023-04-12T04:51:16.771Z,9.60
2023-04-12T04:53:44.026Z,9.60
2023-04-12T04:56:11.706Z,9.60
2023-04-12T04:58:38.429Z,9.50
2023-04-12T05:01:05.396Z,9.50
2023-04-12T05:03:34.074Z,9.50
2023-04-12T05:06:03.393Z,9.40
2023-04-12T05:08:30.155Z,9.40
2023-04-12T05:10:57.274Z,9.30
2023-04-12T05:13:24.067Z,9.30
2023-04-12T05:15:51.065Z,9.20
2023-04-12T05:18:20.432Z,9.20
2023-04-12T05:20:48.384Z,9.20
2023-04-12T05:23:17.287Z,9.10
2023-04-12T05:25:46.812Z,9.10
2023-04-12T05:28:14.918Z,9.20
2023-04-12T05:30:41.612Z,9.20
2023-04-12T05:33:08.387Z,9.30
2023-04-12T05:35:35.358Z,9.30
2023-04-12T05:38:02.247Z,9.30
2023-04-12T05:40:31.584Z,9.30
2023-04-12T05:42:58.534Z,9.30
2023-04-12T05:45:25.218Z,9.30
2023-04-12T05:47:51.849Z,9.30
2023-04-12T05:50:18.508Z,9.30
2023-04-12T05:52:45.122Z,9.30
2023-04-12T05:55:12.783Z,9.40
2023-04-12T05:57:39.493Z,9.40
2023-04-12T06:00:18.651Z,9.50
2023-04-12T06:02:46.189Z,9.50
2023-04-12T06:05:13.208Z,9.60
2023-04-12T06:07:42.056Z,9.60
2023-04-12T06:10:10.003Z,9.60
2023-04-12T06:12:36.743Z,9.70
2023-04-12T06:15:03.501Z,9.70
2023-04-12T06:17:30.388Z,9.80
2023-04-12T06:19:57.080Z,9.80
2023-04-12T06:22:23.817Z,9.90
2023-04-12T06:24:50.877Z,9.90
2023-04-12T06:27:17.679Z,9.90
2023-04-12T06:29:44.282Z,10.00
2023-04-12T06:32:11.056Z,9.90
2023-04-12T06:34:37.705Z,9.90
2023-04-12T06:37:04.343Z,9.90
2023-04-12T06:39:31.040Z,9.90
2023-04-12T06:41:58.048Z,10.00
2023-04-12T06:44:26.668Z,10.00
2023-04-12T06:46:53.713Z,10.10
2023-04-12T06:49:20.302Z,10.10
2023-04-12T06:51:46.875Z,10.10
2023-04-12T06:54:14.198Z,10.10
2023-04-12T06:56:40.957Z,10.20
2023-04-12T06:59:08.275Z,10.20
2023-04-12T07:01:35.012Z,10.30
2023-04-12T07:04:01.732Z,10.30
2023-04-12T07:06:28.649Z,10.30
2023-04-12T07:08:55.409Z,10.40
2023-04-12T07:11:22.681Z,10.40
2023-04-12T07:13:50.732Z,10.40
2023-04-12T07:16:18.037Z,10.30
2023-04-12T07:18:44.829Z,10.40
2023-04-12T07:21:14.287Z,10.40
2023-04-12T07:23:41.169Z,10.50
2023-04-12T07:26:07.859Z,10.60
2023-04-12T07:28:36.068Z,10.70
2023-04-12T07:31:06.417Z,10.70
2023-04-12T07:33:34.669Z,10.80
2023-04-12T07:36:02.163Z,10.80
2023-04-12T07:38:28.846Z,10.90
2023-04-12T07:40:56.442Z,11.00
2023-04-12T07:43:23.482Z,11.10
2023-04-12T07:45:50.190Z,11.20
2023-04-12T07:48:16.921Z,11.30
2023-04-12T07:50:43.791Z,11.40
2023-04-12T07:53:24.782Z,11.50
2023-04-12T07:55:51.512Z,11.60
2023-04-12T07:58:19.068Z,11.70
2023-04-12T08:00:46.716Z,11.70
2023-04-12T08:03:15.386Z,11.80
2023-04-12T08:05:42.866Z,11.90
2023-04-12T08:08:10.293Z,11.90
2023-04-12T08:10:38.156Z,12.00
2023-04-12T08:13:06.013Z,12.00
2023-04-12T08:15:33.688Z,12.10
2023-04-12T08:18:00.922Z,12.10
2023-04-12T08:20:27.878Z,12.10
2023-04-12T08:22:54.857Z,12.20
2023-04-12T08:25:22.182Z,12.30
2023-04-12T08:27:50.240Z,12.30
2023-04-12T08:30:17.860Z,12.40
2023-04-12T08:32:44.770Z,12.50
2023-04-12T08:35:12.055Z,12.50
2023-04-12T08:37:38.793Z,12.60
2023-04-12T08:40:07.810Z,12.60
2023-04-12T08:42:36.962Z,12.70
2023-04-12T08:45:11.827Z,12.80
2023-04-12T08:47:41.352Z,12.80
2023-04-12T08:50:09.728Z,13.00
2023-04-12T08:52:37.983Z,13.00
2023-04-12T08:55:08.582Z,13.10
2023-04-12T08:57:36.213Z,13.20
2023-04-12T09:00:04.755Z,13.30
2023-04-12T09:02:31.869Z,13.40
2023-04-12T09:04:58.759Z,13.50
2023-04-12T09:07:30.419Z,13.50
2023-04-12T09:09:58.614Z,13.60
2023-04-12T09:12:25.889Z,13.70
2023-04-12T09:15:09.990Z,13.80
2023-04-12T09:17:38.565Z,13.90
2023-04-12T09:20:17.450Z,13.90
2023-04-12T09:22:46.423Z,14.00
2023-04-12T09:25:14.649Z,14.00
2023-04-12T09:27:51.898Z,14.00
2023-04-12T09:30:19.752Z,14.00
2023-04-12T09:32:49.270Z,14.10
2023-04-12T09:35:16.198Z,14.10
2023-04-12T09:37:43.032Z,14.10
2023-04-12T09:40:10.821Z,14.20
2023-04-12T09:42:54.195Z,14.20
2023-04-12T09:45:26.389Z,14.30
2023-04-12T09:47:54.820Z,14.40
2023-04-12T09:50:26.590Z,14.40
2023-04-12T09:52:54.757Z,14.50
2023-04-12T09:55:23.595Z,14.60
2023-04-12T09:57:51.896Z,14.70
2023-04-12T10:00:22.467Z,14.90
2023-04-12T10:02:53.304Z,14.90
2023-04-12T10:05:26.052Z,15.10
2023-04-12T10:07:54.950Z,15.10
2023-04-12T10:10:22.668Z,15.20
2023-04-12T10:12:49.832Z,15.20
2023-04-12T10:15:18.276Z,15.20
2023-04-12T10:17:47.699Z,15.30
2023-04-12T10:20:16.781Z,15.30
2023-04-12T10:22:48.291Z,15.40
2023-04-12T10:25:17.602Z,15.40
2023-04-12T10:27:45.808Z,15.50
2023-04-12T10:30:29.662Z,15.50
2023-04-12T10:33:02.445Z,15.60
2023-04-12T10:35:48.033Z,15.60
2023-04-12T10:38:15.612Z,15.70
2023-04-12T10:41:15.254Z,15.70
2023-04-12T10:43:43.936Z,15.80
2023-04-12T10:46:46.066Z,15.80
2023-04-12T10:49:14.116Z,15.70
2023-04-12T10:52:07.333Z,15.80
2023-04-12T10:54:37.487Z,15.90
2023-04-12T10:57:04.757Z,16.10
2023-04-12T10:59:50.910Z,16.10
2023-04-12T11:02:18.125Z,16.00
2023-04-12T11:05:23.722Z,16.00
2023-04-12T11:07:53.662Z,15.90
2023-04-12T11:10:21.781Z,15.90
2023-04-12T11:12:50.491Z,15.90
2023-04-12T11:15:17.977Z,15.90
2023-04-12T11:17:54.276Z,15.90
2023-04-12T11:20:23.029Z,15.80
2023-04-12T11:22:51.876Z,15.80
2023-04-12T11:25:18.757Z,15.80
2023-04-12T11:27:53.424Z,15.80
2023-04-12T11:30:20.551Z,15.90
2023-04-12T11:32:47.586Z,15.90
2023-04-12T11:35:20.148Z,15.90
2023-04-12T11:37:47.028Z,16.10
2023-04-12T11:40:14.924Z,16.00
2023-04-12T11:42:41.792Z,15.90
2023-04-12T11:45:17.279Z,15.80
2023-04-12T11:47:46.312Z,15.80
2023-04-12T11:50:13.227Z,15.80
2023-04-12T11:52:41.054Z,15.60
2023-04-12T11:55:10.877Z,15.50
2023-04-12T11:57:38.818Z,15.40
2023-04-12T12:00:06.928Z,15.20
2023-04-12T12:02:41.071Z,15.20
2023-04-12T12:05:11.456Z,15.10
2023-04-12T12:07:38.729Z,15.10
2023-04-12T12:10:06.765Z,15.10
2023-04-12T12:12:35.213Z,15.00
2023-04-12T12:15:02.354Z,14.90
2023-04-12T12:17:30.388Z,14.90
2023-04-12T12:20:02.265Z,14.70
2023-04-12T12:22:28.924Z,14.70
2023-04-12T12:25:00.282Z,14.60
2023-04-12T12:27:41.848Z,14.50
2023-04-12T12:30:10.058Z,14.40
2023-04-12T12:32:39.348Z,13.90
2023-04-12T12:35:10.608Z,13.70
2023-04-12T12:37:37.888Z,13.70
2023-04-12T12:40:16.358Z,13.70
2023-04-12T12:42:51.807Z,13.90
2023-04-12T12:45:21.973Z,13.90
2023-04-12T12:47:50.763Z,13.90
2023-04-12T12:50:19.347Z,14.10
2023-04-12T12:52:47.180Z,14.10
2023-04-12T12:55:15.099Z,14.20
2023-04-12T12:57:55.104Z,14.30
2023-04-12T13:00:29.599Z,14.40
2023-04-12T13:02:56.673Z,14.40
2023-04-12T13:05:23.758Z,14.40
2023-04-12T13:07:50.523Z,14.30
2023-04-12T13:10:17.272Z,14.50
2023-04-12T13:12:43.869Z,14.50
2023-04-12T13:15:21.137Z,14.40
2023-04-12T13:17:52.175Z,14.30
2023-04-12T13:20:18.882Z,14.20
2023-04-12T13:22:45.542Z,14.30
2023-04-12T13:25:12.213Z,14.30
2023-04-12T13:27:38.832Z,14.50
2023-04-12T13:30:06.821Z,14.50
2023-04-12T13:32:33.729Z,14.60
2023-04-12T13:35:00.600Z,14.70
2023-04-12T13:37:27.247Z,14.60
2023-04-12T13:39:53.867Z,14.60
2023-04-12T13:42:20.656Z,14.60
2023-04-12T13:44:48.604Z,14.50
2023-04-12T13:47:16.138Z,14.50
2023-04-12T13:49:42.752Z,14.50
2023-04-12T13:52:09.774Z,14.60
2023-04-12T13:54:36.469Z,14.60
2023-04-12T13:57:03.937Z,14.70
2023-04-12T13:59:30.684Z,14.80
2023-04-12T14:01:57.394Z,14.80
2023-04-12T14:04:27.064Z,14.70
2023-04-12T14:06:53.704Z,14.60
2023-04-12T14:09:31.532Z,14.50
2023-04-12T14:11:59.978Z,14.60
2023-04-12T14:14:27.617Z,14.50
2023-04-12T14:16:58.631Z,14.50
2023-04-12T14:19:25.500Z,14.40
2023-04-12T14:21:52.439Z,14.20
2023-04-12T14:24:20.283Z,14.20
2023-04-12T14:26:48.381Z,14.10
2023-04-12T14:29:15.682Z,14.20
2023-04-12T14:31:42.434Z,14.20
2023-04-12T14:34:10.636Z,14.00
2023-04-12T14:36:37.527Z,13.90
2023-04-12T14:39:06.384Z,14.00
2023-04-12T14:41:34.436Z,13.90
2023-04-12T14:44:01.439Z,13.90
2023-04-12T14:46:28.580Z,13.90
2023-04-12T14:48:57.192Z,13.90
2023-04-12T14:51:24.166Z,13.90
2023-04-12T14:53:50.989Z,14.00
2023-04-12T14:56:24.346Z,13.90
2023-04-12T14:58:55.829Z,13.90
2023-04-12T15:01:23.700Z,13.90
2023-04-12T15:03:51.918Z,13.90
2023-04-12T15:06:19.254Z,14.00
2023-04-12T15:08:46.639Z,14.00
2023-04-12T15:11:13.365Z,13.90
2023-04-12T15:13:41.472Z,13.80
2023-04-12T15:16:09.295Z,13.80
2023-04-12T15:18:39.377Z,13.80
2023-04-12T15:21:08.458Z,13.70
2023-04-12T15:23:36.061Z,13.60
2023-04-12T15:26:03.203Z,13.60
2023-04-12T15:28:31.548Z,13.60
2023-04-12T15:30:58.457Z,13.60
2023-04-12T15:33:25.835Z,13.70
2023-04-12T15:35:56.368Z,13.60
2023-04-12T15:38:24.667Z,13.60
2023-04-12T15:40:56.182Z,13.50
2023-04-12T15:43:23.877Z,13.60
2023-04-12T15:45:53.185Z,13.50
2023-04-12T15:48:24.254Z,13.50
2023-04-12T15:50:52.257Z,13.50
2023-04-12T15:53:20.722Z,13.40
2023-04-12T15:55:48.587Z,13.30
2023-04-12T15:58:15.393Z,13.40
2023-04-12T16:00:42.155Z,13.30
2023-04-12T16:03:09.328Z,13.30
2023-04-12T16:05:36.458Z,13.30
2023-04-12T16:08:03.388Z,13.20
2023-04-12T16:10:30.297Z,13.20
2023-04-12T16:12:57.999Z,13.00
2023-04-12T16:15:24.970Z,12.90
2023-04-12T16:17:55.685Z,12.80
2023-04-12T16:20:23.026Z,12.90
2023-04-12T16:22:56.595Z,12.70
2023-04-12T16:25:25.090Z,12.70
2023-04-12T16:27:52.151Z,12.50
2023-04-12T16:30:18.974Z,12.40
2023-04-12T16:32:46.777Z,12.30
2023-04-12T16:35:14.922Z,12.00
2023-04-12T16:37:42.761Z,12.10
2023-04-12T16:40:12.724Z,12.00
2023-04-12T16:42:43.381Z,11.90
2023-04-12T16:45:12.124Z,11.90
2023-04-12T16:47:40.088Z,11.90
2023-04-12T16:50:10.252Z,11.80
2023-04-12T16:52:37.604Z,11.70
2023-04-12T16:55:04.703Z,11.60
2023-04-12T16:57:31.550Z,11.50
2023-04-12T16:59:58.338Z,11.50
2023-04-12T17:02:25.945Z,11.50
2023-04-12T17:04:52.961Z,11.50
2023-04-12T17:07:19.848Z,11.60
2023-04-12T17:09:46.462Z,11.50
2023-04-12T17:12:13.120Z,11.50
2023-04-12T17:14:39.835Z,11.40
2023-04-12T17:17:07.016Z,11.30
2023-04-12T17:19:33.844Z,11.30
2023-04-12T17:22:00.761Z,11.40
2023-04-12T17:24:28.603Z,11.40
2023-04-12T17:26:55.691Z,11.40
2023-04-12T17:29:22.379Z,11.30
2023-04-12T17:31:50.721Z,11.40
2023-04-12T17:34:19.964Z,11.40
2023-04-12T17:36:46.777Z,11.30
2023-04-12T17:39:13.512Z,11.20
2023-04-12T17:41:40.434Z,11.20
2023-04-12T17:44:07.718Z,11.30
2023-04-12T17:46:35.367Z,11.40
2023-04-12T17:49:05.344Z,11.40
2023-04-12T17:51:32.242Z,11.40
2023-04-12T17:54:00.213Z,11.40
2023-04-12T17:56:26.965Z,11.50
2023-04-12T17:58:54.709Z,11.50
2023-04-12T18:01:21.438Z,11.50
2023-04-12T18:03:49.404Z,11.50
2023-04-12T18:06:18.357Z,11.50
2023-04-12T18:08:45.190Z,11.60
2023-04-12T18:11:12.967Z,11.50
2023-04-12T18:13:39.765Z,11.60
2023-04-12T18:16:07.173Z,11.50
2023-04-12T18:18:34.244Z,11.50
2023-04-12T18:21:04.493Z,11.60
2023-04-12T18:23:31.412Z,11.50
2023-04-12T18:25:58.100Z,11.40
2023-04-12T18:28:24.832Z,11.50
2023-04-12T18:30:51.726Z,11.50
2023-04-12T18:33:18.390Z,11.40
2023-04-12T18:35:45.075Z,11.40
2023-04-12T18:38:11.673Z,11.50
2023-04-12T18:40:38.680Z,11.50
2023-04-12T18:43:05.496Z,11.50
2023-04-12T18:45:32.369Z,11.50
2023-04-12T18:47:59.954Z,11.40
2023-04-12T18:50:26.928Z,11.40
2023-04-12T18:52:53.548Z,11.40
2023-04-12T18:55:20.504Z,11.30
2023-04-12T18:57:48.977Z,11.30
2023-04-12T19:00:16.488Z,11.30
2023-04-12T19:02:43.574Z,11.30
2023-04-12T19:05:11.710Z,11.20
2023-04-12T19:07:38.452Z,11.20
2023-04-12T19:10:05.556Z,11.10
2023-04-12T19:12:33.232Z,11.10
2023-04-12T19:15:00.021Z,11.20
2023-04-12T19:17:30.289Z,11.10
2023-04-12T19:19:57.748Z,11.20
2023-04-12T19:22:27.660Z,11.30
2023-04-12T19:24:54.794Z,11.30
2023-04-12T19:27:22.921Z,11.30
2023-04-12T19:29:51.423Z,11.30
2023-04-12T19:32:18.739Z,11.30
2023-04-12T19:34:46.481Z,11.30
2023-04-12T19:37:13.445Z,11.40
2023-04-12T19:39:41.092Z,11.40
2023-04-12T19:42:07.722Z,11.30
2023-04-12T19:44:34.359Z,11.30
2023-04-12T19:47:01.508Z,11.30
2023-04-12T19:49:28.732Z,11.40
2023-04-12T19:51:55.448Z,11.20
2023-04-12T19:54:25.579Z,11.10
2023-04-12T19:56:53.513Z,11.10
2023-04-12T19:59:20.881Z,11.10
2023-04-12T20:01:48.068Z,11.10
2023-04-12T20:04:19.369Z,11.10
2023-04-12T20:06:47.074Z,11.20
2023-04-12T20:09:14.770Z,11.20
2023-04-12T20:11:42.133Z,11.20
2023-04-12T20:14:08.835Z,11.20
2023-04-12T20:16:37.349Z,11.20
2023-04-12T20:19:05.002Z,11.30
2023-04-12T20:21:34.233Z,11.30
2023-04-12T20:24:08.144Z,11.30
2023-04-12T20:26:36.324Z,11.30
2023-04-12T20:29:04.748Z,11.20
2023-04-12T20:31:31.757Z,11.10
2023-04-12T20:33:58.553Z,11.00
2023-04-12T20:36:26.305Z,10.60
2023-04-12T20:38:53.712Z,10.40
2023-04-12T20:41:20.628Z,10.10
2023-04-12T20:43:48.057Z,10.10
2023-04-12T20:46:17.333Z,10.10
2023-04-12T20:48:46.399Z,10.00
2023-04-12T20:51:14.842Z,10.00
2023-04-12T20:53:48.412Z,9.80
2023-04-12T20:56:18.582Z,9.60
2023-04-12T20:58:48.325Z,9.70
2023-04-12T21:01:15.277Z,9.80
2023-04-12T21:03:43.349Z,9.80
2023-04-12T21:06:10.881Z,9.70
2023-04-12T21:08:38.710Z,9.70
2023-04-12T21:11:06.006Z,9.60
2023-04-12T21:13:34.433Z,9.60
2023-04-12T21:16:04.573Z,9.50
2023-04-12T21:18:35.918Z,9.60
2023-04-12T21:21:03.604Z,9.70
2023-04-12T21:23:30.288Z,9.70
2023-04-12T21:25:57.086Z,9.70
2023-04-12T21:28:23.749Z,9.70
2023-04-12T21:30:55.045Z,9.70
2023-04-12T21:33:25.511Z,9.70
2023-04-12T21:35:54.321Z,9.60
2023-04-12T21:38:22.342Z,9.60
2023-04-12T21:40:49.637Z,9.60
2023-04-12T21:43:16.553Z,9.60
2023-04-12T21:45:43.335Z,9.60
2023-04-12T21:48:09.926Z,9.50
2023-04-12T21:50:37.545Z,9.60
2023-04-12T21:53:04.229Z,9.60
2023-04-12T21:55:31.037Z,9.70
2023-04-12T21:57:57.721Z,9.70
2023-04-12T22:00:27.109Z,9.70
2023-04-12T22:02:54.074Z,9.60
2023-04-12T22:05:21.134Z,9.60
2023-04-12T22:07:47.777Z,9.70
2023-04-12T22:10:14.859Z,9.60
2023-04-12T22:12:42.163Z,9.50
2023-04-12T22:15:11.385Z,9.40
2023-04-12T22:17:38.786Z,9.40
2023-04-12T22:20:08.279Z,9.40
2023-04-12T22:22:37.130Z,9.30
2023-04-12T22:25:04.989Z,9.30
2023-04-12T22:27:31.791Z,9.30
2023-04-12T22:30:00.180Z,9.50
2023-04-12T22:32:27.403Z,9.40
2023-04-12T22:35:05.353Z,9.40
2023-04-12T22:37:35.622Z,9.40
2023-04-12T22:40:02.478Z,9.30
2023-04-12T22:42:29.945Z,9.40
2023-04-12T22:45:00.580Z,9.40
2023-04-12T22:47:27.960Z,9.40
2023-04-12T22:50:00.892Z,9.30
2023-04-12T22:52:30.459Z,9.20
2023-04-12T22:54:57.229Z,9.20
2023-04-12T22:57:23.922Z,9.10
2023-04-12T22:59:53.395Z,9.10
2023-04-12T23:02:20.421Z,9.20
2023-04-12T23:04:49.045Z,9.10
2023-04-12T23:07:16.353Z,9.10
2023-04-12T23:09:45.020Z,9.00
2023-04-12T23:12:12.558Z,9.10
2023-04-12T23:14:39.944Z,9.10
2023-04-12T23:17:07.294Z,9.10
2023-04-12T23:19:34.516Z,9.00
2023-04-12T23:22:01.369Z,9.10
2023-04-12T23:24:28.386Z,9.20
2023-04-12T23:26:57.745Z,9.20
2023-04-12T23:29:25.612Z,9.20
2023-04-12T23:31:52.916Z,9.20
2023-04-12T23:34:21.938Z,9.30
2023-04-12T23:36:50.075Z,9.30
2023-04-12T23:39:18.015Z,9.30
2023-04-12T23:41:45.348Z,9.30
2023-04-12T23:44:12.088Z,9.30
2023-04-12T23:46:38.858Z,9.30
2023-04-12T23:49:05.674Z,9.10
2023-04-12T23:51:32.505Z,9.10
2023-04-12T23:53:59.383Z,9.00
2023-04-12T23:56:27.256Z,9.00
2023-04-12T23:58:53.923Z,9.10
